Time;durP1;ratioP1;P1;durP2;ratioP2;P2;SDS_P1;SDS_P2;PMS_P1;PMS_P2;Temp;Humidity;BMP_temperature;BMP_pressure;BME280_temperature;BME280_humidity;BME280_pressure;Samples;Min_cycle;Max_cycle;Signal;HPM_P1;HPM_P2
2022/06/05 00:01:59;;;;;;;11.90;10.90;;;;;;;;;;5058582;28;20489;-79
2022/06/05 00:04:34;;;;;;;11.17;10.17;;;;;;;;;;5059309;28;20972;-79
2022/06/05 00:07:06;;;;;;;10.63;9.73;;;;;;;;;;5070324;28;20544;-79
2022/06/05 00:09:35;;;;;;;12.47;11.27;;;;;;;;;;5071086;28;20426;-79
2022/06/05 00:12:06;;;;;;;11.73;10.73;;;;;;;;;;5071291;28;20939;-79
2022/06/05 00:14:33;;;;;;;11.70;10.50;;;;;;;;;;5065119;28;20438;-79
2022/06/05 00:17:00;;;;;;;12.13;10.93;;;;;;;;;;5070261;28;20480;-79
2022/06/05 00:19:26;;;;;;;12.00;10.90;;;;;;;;;;5069882;28;20449;-79
2022/06/05 00:21:53;;;;;;;12.07;10.97;;;;;;;;;;5069851;28;20534;-79
2022/06/05 00:24:21;;;;;;;12.10;10.90;;;;;;;;;;5066290;28;20460;-79
2022/06/05 00:26:51;;;;;;;12.50;11.40;;;;;;;;;;5055013;28;20455;-79
2022/06/05 00:29:22;;;;;;;11.70;10.70;;;;;;;;;;5071802;28;20437;-79
2022/06/05 00:31:53;;;;;;;11.37;10.37;;;;;;;;;;5060443;28;20490;-79
2022/06/05 00:34:19;;;;;;;11.00;10.00;;;;;;;;;;5070349;28;20434;-79
2022/06/05 00:36:51;;;;;;;12.70;11.50;;;;;;;;;;5068798;28;20462;-79
2022/06/05 00:39:20;;;;;;;11.80;10.70;;;;;;;;;;5063005;28;20471;-79
2022/06/05 00:41:55;;;;;;;12.30;11.07;;;;;;;;;;5065455;28;20437;-79
2022/06/05 00:44:24;;;;;;;12.37;11.27;;;;;;;;;;5060039;28;20927;-79
2022/06/05 00:46:51;;;;;;;12.17;10.97;;;;;;;;;;5074209;28;20469;-77
2022/06/05 00:49:19;;;;;;;11.37;10.43;;;;;;;;;;5060064;28;20438;-78
2022/06/05 00:51:45;;;;;;;11.73;10.73;;;;;;;;;;5058146;28;20447;-78
2022/06/05 00:54:12;;;;;;;11.80;10.80;;;;;;;;;;5068131;28;20508;-78
2022/06/05 00:56:38;;;;;;;12.60;11.50;;;;;;;;;;5072771;28;20442;-77
2022/06/05 00:59:07;;;;;;;12.13;11.10;;;;;;;;;;5070870;28;20516;-78
2022/06/05 01:01:34;;;;;;;12.27;11.17;;;;;;;;;;5064033;28;20450;-75
2022/06/05 01:04:02;;;;;;;11.13;10.00;;;;;;;;;;5070681;28;20816;-74
2022/06/05 01:06:28;;;;;;;11.23;10.23;;;;;;;;;;5064051;28;20941;-74
2022/06/05 01:08:55;;;;;;;12.27;11.07;;;;;;;;;;5070149;28;20956;-74
2022/06/05 01:11:25;;;;;;;12.37;11.20;;;;;;;;;;5067547;28;20599;-75
2022/06/05 01:13:56;;;;;;;11.30;10.30;;;;;;;;;;5067743;28;20442;-74
2022/06/05 01:16:27;;;;;;;11.97;10.87;;;;;;;;;;5066964;28;20549;-74
2022/06/05 01:19:01;;;;;;;12.40;11.20;;;;;;;;;;5066117;28;20450;-74
2022/06/05 01:21:49;;;;;;;12.30;11.23;;;;;;;;;;5068534;28;20540;-74
2022/06/05 01:24:23;;;;;;;12.17;11.03;;;;;;;;;;5055503;28;20997;-75
2022/06/05 01:26:53;;;;;;;11.77;10.77;;;;;;;;;;5055196;28;20938;-74
2022/06/05 01:29:23;;;;;;;13.50;12.20;;;;;;;;;;5065779;28;20478;-75
2022/06/05 01:31:52;;;;;;;12.20;11.20;;;;;;;;;;5050282;28;20795;-75
2022/06/05 01:34:22;;;;;;;12.37;11.27;;;;;;;;;;5060006;28;20429;-75
2022/06/05 01:36:53;;;;;;;12.50;11.40;;;;;;;;;;5051944;28;20956;-75
2022/06/05 01:39:22;;;;;;;12.77;11.50;;;;;;;;;;5067522;28;20450;-75
2022/06/05 01:41:50;;;;;;;13.07;11.97;;;;;;;;;;5068903;28;20454;-75
2022/06/05 01:44:20;;;;;;;14.97;13.57;;;;;;;;;;5070930;28;21079;-75
2022/06/05 01:46:47;;;;;;;12.93;11.83;;;;;;;;;;5072952;28;20486;-75
2022/06/05 01:49:16;;;;;;;12.80;11.33;;;;;;;;;;5071964;28;20450;-75
2022/06/05 01:51:59;;;;;;;12.83;11.73;;;;;;;;;;5065740;28;20544;-75
2022/06/05 01:54:29;;;;;;;11.87;10.70;;;;;;;;;;5079437;28;20516;-74
2022/06/05 01:56:58;;;;;;;11.80;10.80;;;;;;;;;;5057239;28;20454;-75
2022/06/05 01:59:28;;;;;;;11.63;10.63;;;;;;;;;;5054109;28;20444;-75
2022/06/05 02:01:56;;;;;;;12.43;11.13;;;;;;;;;;5062698;28;20449;-75
2022/06/05 02:04:26;;;;;;;12.47;11.33;;;;;;;;;;5074456;28;20467;-75
2022/06/05 02:06:54;;;;;;;11.40;10.43;;;;;;;;;;5073943;28;20544;-75
2022/06/05 02:09:24;;;;;;;12.33;11.20;;;;;;;;;;5066649;28;20473;-75
2022/06/05 02:11:50;;;;;;;12.33;11.23;;;;;;;;;;5073179;28;20482;-74
2022/06/05 02:14:17;;;;;;;10.73;9.80;;;;;;;;;;5072719;28;20597;-75
2022/06/05 02:16:45;;;;;;;14.00;12.53;;;;;;;;;;5071275;28;20527;-75
2022/06/05 02:19:13;;;;;;;12.50;11.40;;;;;;;;;;5052581;28;20497;-75
2022/06/05 02:21:40;;;;;;;12.10;10.90;;;;;;;;;;5054084;28;20474;-75
2022/06/05 02:24:08;;;;;;;13.87;12.30;;;;;;;;;;5054553;28;20498;-75
2022/06/05 02:26:35;;;;;;;13.33;12.13;;;;;;;;;;5054424;28;20820;-75
2022/06/05 02:29:02;;;;;;;13.40;12.20;;;;;;;;;;5084489;28;20461;-75
2022/06/05 02:31:34;;;;;;;12.77;11.67;;;;;;;;;;5052600;28;20469;-75
2022/06/05 02:34:07;;;;;;;12.80;11.43;;;;;;;;;;5043341;28;20454;-75
2022/06/05 02:36:38;;;;;;;14.43;11.60;;;;;;;;;;5063858;28;20796;-75
2022/06/05 02:39:12;;;;;;;14.03;12.73;;;;;;;;;;5073077;28;20529;-75
2022/06/05 02:41:43;;;;;;;13.50;12.30;;;;;;;;;;5072892;28;21023;-75
2022/06/05 02:44:31;;;;;;;14.07;12.77;;;;;;;;;;5071369;28;20470;-74
2022/06/05 02:47:03;;;;;;;13.53;12.37;;;;;;;;;;5069097;28;20586;-75
2022/06/05 02:49:32;;;;;;;12.63;11.43;;;;;;;;;;5070301;28;20450;-75
2022/06/05 02:52:00;;;;;;;13.30;12.00;;;;;;;;;;5063435;28;20461;-76
2022/06/05 02:54:27;;;;;;;11.90;10.77;;;;;;;;;;5053363;28;20853;-75
2022/06/05 02:56:55;;;;;;;13.00;11.90;;;;;;;;;;5078268;28;20450;-76
2022/06/05 02:59:22;;;;;;;14.93;12.20;;;;;;;;;;5035847;28;20481;-75
2022/06/05 03:04:33;;;;;;;13.47;12.27;;;;;;;;;;5060771;28;20523;-75
2022/06/05 03:07:00;;;;;;;14.70;11.87;;;;;;;;;;5068247;28;20504;-75
2022/06/05 03:09:27;;;;;;;13.63;12.43;;;;;;;;;;5072510;28;20454;-76
2022/06/05 03:11:53;;;;;;;13.50;12.20;;;;;;;;;;5067936;28;20458;-75
2022/06/05 03:14:20;;;;;;;12.40;11.30;;;;;;;;;;5051153;28;20484;-75
2022/06/05 03:16:46;;;;;;;12.73;11.53;;;;;;;;;;5037152;28;20465;-75
2022/06/05 03:19:13;;;;;;;13.10;11.90;;;;;;;;;;5068517;28;20443;-76
2022/06/05 03:21:41;;;;;;;13.87;12.57;;;;;;;;;;5067317;28;20449;-76
2022/06/05 03:24:08;;;;;;;14.37;12.83;;;;;;;;;;5072140;28;20468;-75
2022/06/05 03:26:34;;;;;;;13.80;12.50;;;;;;;;;;5070111;28;20460;-75
2022/06/05 03:29:01;;;;;;;12.43;11.30;;;;;;;;;;5068000;28;20451;-76
2022/06/05 03:31:28;;;;;;;13.87;12.60;;;;;;;;;;5071985;28;20486;-75
2022/06/05 03:33:54;;;;;;;13.23;12.03;;;;;;;;;;5071754;28;20434;-76
2022/06/05 03:36:21;;;;;;;13.43;12.17;;;;;;;;;;5062223;28;20482;-75
2022/06/05 03:38:48;;;;;;;12.87;11.70;;;;;;;;;;5053098;28;20481;-75
2022/06/05 03:41:16;;;;;;;13.57;12.27;;;;;;;;;;5060856;28;20798;-75
2022/06/05 03:43:42;;;;;;;13.17;12.00;;;;;;;;;;5069891;28;20834;-75
2022/06/05 03:46:10;;;;;;;13.60;12.40;;;;;;;;;;5063901;28;20478;-75
2022/06/05 03:48:36;;;;;;;13.10;11.80;;;;;;;;;;5070646;28;20454;-75
2022/06/05 03:51:05;;;;;;;13.80;12.50;;;;;;;;;;5067303;28;20849;-79
2022/06/05 03:53:32;;;;;;;12.57;11.37;;;;;;;;;;5067161;28;20446;-78
2022/06/05 03:56:00;;;;;;;12.50;11.20;;;;;;;;;;5053067;28;21041;-78
2022/06/05 03:58:26;;;;;;;12.27;11.07;;;;;;;;;;5070576;28;20465;-79
2022/06/05 04:00:53;;;;;;;12.57;11.37;;;;;;;;;;5070431;28;20481;-79
2022/06/05 04:03:20;;;;;;;10.50;9.60;;;;;;;;;;5053309;28;20442;-79
2022/06/05 04:05:46;;;;;;;11.53;10.43;;;;;;;;;;5060866;28;20548;-79
2022/06/05 04:08:14;;;;;;;13.47;12.27;;;;;;;;;;5060415;28;20481;-78
2022/06/05 04:10:41;;;;;;;12.10;11.10;;;;;;;;;;5054885;28;20439;-78
2022/06/05 04:13:09;;;;;;;12.37;11.27;;;;;;;;;;5054377;28;20474;-78
2022/06/05 04:15:38;;;;;;;11.83;10.73;;;;;;;;;;5071385;28;20442;-78
2022/06/05 04:18:04;;;;;;;12.30;11.10;;;;;;;;;;5057330;28;20470;-79
2022/06/05 04:20:32;;;;;;;12.30;11.10;;;;;;;;;;5051210;28;20457;-79
2022/06/05 04:22:59;;;;;;;12.77;11.40;;;;;;;;;;5059445;28;20442;-79
2022/06/05 04:25:28;;;;;;;12.00;11.00;;;;;;;;;;5066365;28;20474;-79
2022/06/05 04:27:55;;;;;;;13.20;12.00;;;;;;;;;;5054975;28;20485;-79
2022/06/05 04:30:25;;;;;;;13.30;12.00;;;;;;;;;;5059721;28;20540;-78
2022/06/05 04:32:51;;;;;;;12.73;11.60;;;;;;;;;;5066525;28;20442;-78
2022/06/05 04:35:18;;;;;;;12.47;11.37;;;;;;;;;;5062224;28;20526;-78
2022/06/05 04:37:44;;;;;;;12.60;11.30;;;;;;;;;;5065016;28;20442;-78
2022/06/05 04:40:11;;;;;;;13.17;11.97;;;;;;;;;;5069006;28;20478;-78
2022/06/05 04:42:38;;;;;;;13.30;12.20;;;;;;;;;;5070958;28;20441;-78
2022/06/05 04:45:04;;;;;;;13.30;12.03;;;;;;;;;;5065648;28;20498;-78
2022/06/05 04:47:32;;;;;;;13.40;12.10;;;;;;;;;;5058790;28;20679;-78
2022/06/05 04:49:59;;;;;;;14.70;13.43;;;;;;;;;;5067128;28;20818;-78
2022/06/05 04:52:25;;;;;;;14.97;13.67;;;;;;;;;;5066914;28;20451;-78
2022/06/05 04:54:52;;;;;;;14.40;13.10;;;;;;;;;;5065928;28;20441;-78
2022/06/05 04:57:19;;;;;;;14.90;13.40;;;;;;;;;;5059859;28;20461;-78
2022/06/05 04:59:45;;;;;;;14.83;13.37;;;;;;;;;;5056192;28;20533;-79
2022/06/05 05:02:12;;;;;;;15.70;14.13;;;;;;;;;;5052019;28;20455;-79
2022/06/05 05:04:39;;;;;;;14.43;13.13;;;;;;;;;;5047971;28;20564;-79
2022/06/05 05:07:06;;;;;;;15.00;13.60;;;;;;;;;;5050034;28;20454;-79
2022/06/05 05:09:33;;;;;;;15.10;13.80;;;;;;;;;;5068163;28;20458;-78
2022/06/05 05:11:59;;;;;;;15.13;13.60;;;;;;;;;;5059042;28;20447;-79
2022/06/05 05:14:26;;;;;;;15.60;14.00;;;;;;;;;;5054674;28;20804;-78
2022/06/05 05:16:52;;;;;;;15.27;13.90;;;;;;;;;;5058034;28;20973;-79
2022/06/05 05:19:19;;;;;;;15.57;13.93;;;;;;;;;;5065863;28;20466;-79
2022/06/05 05:21:46;;;;;;;15.57;13.93;;;;;;;;;;5069972;28;20542;-79
2022/06/05 05:24:13;;;;;;;15.57;13.70;;;;;;;;;;5049404;28;20442;-79
2022/06/05 05:26:40;;;;;;;17.10;13.83;;;;;;;;;;5068913;28;20986;-79
2022/06/05 05:29:06;;;;;;;16.13;14.67;;;;;;;;;;5071818;28;20465;-80
2022/06/05 05:31:35;;;;;;;15.20;13.57;;;;;;;;;;5068563;28;20493;-80
2022/06/05 05:34:01;;;;;;;16.53;15.03;;;;;;;;;;5068649;28;20438;-79
2022/06/05 05:36:28;;;;;;;16.47;14.70;;;;;;;;;;5063987;28;20449;-79
2022/06/05 05:44:25;;;;;;;16.43;14.93;;;;;;;;;;5069018;28;20441;-79
2022/06/05 05:46:52;;;;;;;17.07;15.27;;;;;;;;;;5034244;28;20501;-80
2022/06/05 05:49:18;;;;;;;17.03;15.43;;;;;;;;;;5050191;28;20949;-81
2022/06/05 05:51:45;;;;;;;17.97;16.27;;;;;;;;;;5055105;28;20477;-80
2022/06/05 05:54:13;;;;;;;16.43;14.83;;;;;;;;;;5052755;28;20450;-80
2022/06/05 05:56:40;;;;;;;17.03;15.43;;;;;;;;;;5049793;28;20489;-80
2022/06/05 05:59:06;;;;;;;16.40;14.70;;;;;;;;;;5072478;28;20874;-80
2022/06/05 06:01:32;;;;;;;17.23;15.63;;;;;;;;;;5067219;28;20456;-80
2022/06/05 06:03:59;;;;;;;17.00;15.37;;;;;;;;;;5069602;28;20438;-80
2022/06/05 06:06:26;;;;;;;16.80;15.20;;;;;;;;;;5055215;28;20483;-80
2022/06/05 06:08:53;;;;;;;15.27;13.67;;;;;;;;;;5063232;28;20537;-80
2022/06/05 06:11:22;;;;;;;15.60;14.13;;;;;;;;;;5057825;28;20945;-80
2022/06/05 06:13:49;;;;;;;13.47;12.17;;;;;;;;;;5050167;28;20805;-80
2022/06/05 06:16:15;;;;;;;16.23;14.73;;;;;;;;;;5057435;28;20796;-81
2022/06/05 06:18:42;;;;;;;13.43;12.13;;;;;;;;;;5036825;28;20442;-81
2022/06/05 06:21:08;;;;;;;15.23;13.73;;;;;;;;;;5065707;28;20518;-82
2022/06/05 06:23:35;;;;;;;13.43;12.10;;;;;;;;;;5057339;28;20438;-82
2022/06/05 06:26:06;;;;;;;14.00;12.60;;;;;;;;;;5073073;28;20477;-81
2022/06/05 06:28:34;;;;;;;11.73;10.63;;;;;;;;;;5067131;28;20454;-81
2022/06/05 06:31:03;;;;;;;14.03;11.20;;;;;;;;;;5054448;28;20461;-83
2022/06/05 06:33:30;;;;;;;12.20;10.97;;;;;;;;;;5064348;28;20454;-83
2022/06/05 06:36:00;;;;;;;16.47;14.03;;;;;;;;;;5057779;28;20450;-84
2022/06/05 06:38:26;;;;;;;16.20;14.50;;;;;;;;;;5059674;28;20545;-84
2022/06/05 06:40:58;;;;;;;18.10;14.87;;;;;;;;;;5059147;28;20554;-84
2022/06/05 06:43:24;;;;;;;16.37;14.67;;;;;;;;;;5061975;28;20456;-84
2022/06/05 06:45:52;;;;;;;15.10;13.70;;;;;;;;;;5071172;28;20482;-85
2022/06/05 06:48:20;;;;;;;14.77;12.13;;;;;;;;;;5060149;28;20516;-79
2022/06/05 06:50:49;;;;;;;10.97;9.97;;;;;;;;;;5068518;28;20444;-79
2022/06/05 06:53:16;;;;;;;11.30;10.30;;;;;;;;;;5073551;28;20520;-79
2022/06/05 06:55:42;;;;;;;11.23;10.13;;;;;;;;;;5071038;28;20536;-79
2022/06/05 06:58:09;;;;;;;10.40;9.40;;;;;;;;;;5063859;28;20795;-79
2022/06/05 07:00:35;;;;;;;8.93;7.50;;;;;;;;;;5071930;28;20452;-79
2022/06/05 07:03:03;;;;;;;8.13;7.33;;;;;;;;;;5068716;28;20455;-79
2022/06/05 07:05:30;;;;;;;7.40;6.70;;;;;;;;;;5067357;28;20457;-82
2022/06/05 07:07:57;;;;;;;7.90;7.10;;;;;;;;;;5087791;28;20888;-82
2022/06/05 07:10:23;;;;;;;7.30;6.60;;;;;;;;;;5088787;28;20442;-82
2022/06/05 07:12:50;;;;;;;7.07;6.43;;;;;;;;;;5071785;28;20445;-82
2022/06/05 07:15:16;;;;;;;7.60;6.83;;;;;;;;;;5070268;28;20449;-82
2022/06/05 07:17:43;;;;;;;8.77;7.97;;;;;;;;;;5057452;28;20557;-82
2022/06/05 07:20:11;;;;;;;7.93;7.20;;;;;;;;;;5053879;28;20553;-81
2022/06/05 07:22:38;;;;;;;7.33;6.63;;;;;;;;;;5079825;28;20503;-81
2022/06/05 07:25:05;;;;;;;7.90;6.20;;;;;;;;;;5101581;28;20445;-81
2022/06/05 07:27:32;;;;;;;7.87;5.97;;;;;;;;;;5068987;28;20437;-81
2022/06/05 07:29:58;;;;;;;7.33;5.00;;;;;;;;;;5067402;28;20851;-81
2022/06/05 07:32:25;;;;;;;5.30;4.80;;;;;;;;;;5070511;28;20462;-81
2022/06/05 07:34:52;;;;;;;5.40;3.80;;;;;;;;;;5067948;28;20458;-81
2022/06/05 07:37:20;;;;;;;3.67;3.30;;;;;;;;;;5070565;28;21002;-81
2022/06/05 07:39:46;;;;;;;4.77;4.30;;;;;;;;;;5098243;28;20467;-81
2022/06/05 07:42:13;;;;;;;9.13;4.90;;;;;;;;;;5055371;28;20439;-81
2022/06/05 07:44:40;;;;;;;6.60;6.00;;;;;;;;;;5050869;28;20472;-81
2022/06/05 07:47:07;;;;;;;6.07;5.47;;;;;;;;;;5052463;28;20556;-81
2022/06/05 07:49:34;;;;;;;5.50;4.80;;;;;;;;;;5064361;28;20461;-81
2022/06/05 07:54:47;;;;;;;6.30;5.70;;;;;;;;;;5071091;28;20437;-81
2022/06/05 07:57:15;;;;;;;5.70;5.20;;;;;;;;;;5076490;28;20438;-81
2022/06/05 07:59:42;;;;;;;5.57;5.07;;;;;;;;;;5069675;28;20473;-80
2022/06/05 08:02:11;;;;;;;6.73;4.77;;;;;;;;;;5070794;28;20541;-81
2022/06/05 08:04:38;;;;;;;5.80;4.60;;;;;;;;;;5080339;28;20454;-81
2022/06/05 08:07:05;;;;;;;5.80;5.20;;;;;;;;;;5051576;28;20459;-82
2022/06/05 08:09:32;;;;;;;5.83;5.33;;;;;;;;;;5067205;28;20808;-80
2022/06/05 08:12:01;;;;;;;6.53;5.73;;;;;;;;;;5069058;28;20446;-81
2022/06/05 08:14:30;;;;;;;6.30;5.00;;;;;;;;;;5061787;28;20455;-80
2022/06/05 08:16:57;;;;;;;7.13;5.70;;;;;;;;;;5074768;28;20446;-80
2022/06/05 08:19:24;;;;;;;5.00;4.50;;;;;;;;;;5069447;28;20453;-80
2022/06/05 08:21:51;;;;;;;4.87;4.30;;;;;;;;;;5071569;28;20442;-80
2022/06/05 08:24:18;;;;;;;4.17;3.77;;;;;;;;;;5068429;28;20476;-83
2022/06/05 08:26:45;;;;;;;4.90;4.50;;;;;;;;;;5068182;28;20570;-83
2022/06/05 08:29:13;;;;;;;4.33;3.93;;;;;;;;;;5070892;28;20488;-83
2022/06/05 08:31:39;;;;;;;4.17;3.73;;;;;;;;;;5062895;28;20477;-83
2022/06/05 08:34:06;;;;;;;4.47;3.80;;;;;;;;;;5064853;28;20455;-82
2022/06/05 08:36:33;;;;;;;4.50;3.50;;;;;;;;;;5081784;28;20934;-82
2022/06/05 08:41:48;;;;;;;4.40;3.80;;;;;;;;;;5065309;28;20496;-82
2022/06/05 08:44:22;;;;;;;4.83;3.27;;;;;;;;;;5049873;28;20461;-82
2022/06/05 08:46:52;;;;;;;3.90;3.60;;;;;;;;;;5063934;28;20482;-81
2022/06/05 08:49:22;;;;;;;4.03;3.63;;;;;;;;;;5059915;28;20459;-81
2022/06/05 08:51:53;;;;;;;4.90;3.40;;;;;;;;;;5070172;28;20446;-81
2022/06/05 08:54:21;;;;;;;4.27;3.87;;;;;;;;;;5059933;28;20508;-81
2022/06/05 08:56:49;;;;;;;4.67;4.10;;;;;;;;;;5066377;28;20446;-82
2022/06/05 08:59:19;;;;;;;5.13;3.90;;;;;;;;;;5085907;28;20454;-81
2022/06/05 09:01:52;;;;;;;3.97;3.10;;;;;;;;;;5086353;28;20545;-81
2022/06/05 09:04:33;;;;;;;4.00;3.63;;;;;;;;;;5071221;28;20438;-81
2022/06/05 09:07:02;;;;;;;6.00;3.77;;;;;;;;;;5066719;28;20561;-81
2022/06/05 09:09:31;;;;;;;5.30;3.23;;;;;;;;;;5070148;28;20445;-81
2022/06/05 09:12:01;;;;;;;3.87;3.13;;;;;;;;;;5064871;28;20486;-81
2022/06/05 09:14:32;;;;;;;3.30;2.70;;;;;;;;;;5051877;28;20941;-81
2022/06/05 09:17:03;;;;;;;4.23;3.00;;;;;;;;;;5066109;28;20442;-81
2022/06/05 09:19:32;;;;;;;3.83;2.70;;;;;;;;;;5051364;28;21003;-81
2022/06/05 09:22:03;;;;;;;3.53;2.73;;;;;;;;;;5069900;28;20513;-81
2022/06/05 09:24:33;;;;;;;3.27;2.40;;;;;;;;;;5051964;28;20516;-81
2022/06/05 09:27:01;;;;;;;1.90;1.60;;;;;;;;;;5063259;28;20491;-81
2022/06/05 09:29:31;;;;;;;2.50;2.20;;;;;;;;;;5080064;28;20468;-81
2022/06/05 09:32:19;;;;;;;3.17;2.30;;;;;;;;;;5057372;28;20557;-81
2022/06/05 09:34:48;;;;;;;3.00;2.20;;;;;;;;;;5060808;28;20446;-81
2022/06/05 09:37:17;;;;;;;2.83;2.30;;;;;;;;;;5066278;28;20947;-81
2022/06/05 09:39:45;;;;;;;2.53;2.33;;;;;;;;;;5078187;28;20947;-81
2022/06/05 09:42:18;;;;;;;4.33;3.03;;;;;;;;;;5068943;28;20807;-81
2022/06/05 09:44:51;;;;;;;2.53;2.13;;;;;;;;;;5068291;28;20453;-81
2022/06/05 09:47:24;;;;;;;3.40;2.50;;;;;;;;;;5083242;28;20473;-81
2022/06/05 09:49:54;;;;;;;4.00;1.90;;;;;;;;;;5067303;28;20449;-81
2022/06/05 09:52:21;;;;;;;2.37;2.10;;;;;;;;;;5085866;28;20430;-80
2022/06/05 09:54:50;;;;;;;4.13;1.80;;;;;;;;;;5067648;28;20466;-80
2022/06/05 10:00:26;;;;;;;3.53;1.90;;;;;;;;;;5065519;28;20419;-80
2022/06/05 10:02:57;;;;;;;2.90;2.33;;;;;;;;;;5062163;28;20599;-80
2022/06/05 10:05:27;;;;;;;2.90;1.90;;;;;;;;;;5079280;28;20541;-80
2022/06/05 10:07:56;;;;;;;4.07;1.90;;;;;;;;;;5073429;28;20510;-80
2022/06/05 10:10:25;;;;;;;2.40;2.10;;;;;;;;;;5051700;28;20439;-80
2022/06/05 10:12:54;;;;;;;4.53;1.97;;;;;;;;;;5053584;28;20778;-80
2022/06/05 10:15:23;;;;;;;3.10;2.07;;;;;;;;;;5046144;28;20960;-80
2022/06/05 10:17:51;;;;;;;3.23;2.23;;;;;;;;;;5050198;28;20979;-80
2022/06/05 10:20:37;;;;;;;2.80;2.20;;;;;;;;;;5070952;28;20484;-80
2022/06/05 10:23:10;;;;;;;3.00;2.17;;;;;;;;;;5074209;28;20544;-80
2022/06/05 10:25:38;;;;;;;3.57;2.20;;;;;;;;;;5071339;28;20438;-80
2022/06/05 10:28:09;;;;;;;4.23;2.33;;;;;;;;;;5054671;28;20829;-80
2022/06/05 10:30:40;;;;;;;6.00;2.33;;;;;;;;;;5070448;28;20485;-80
2022/06/05 10:33:12;;;;;;;3.47;2.33;;;;;;;;;;5078249;28;20501;-80
2022/06/05 10:35:45;;;;;;;3.37;2.50;;;;;;;;;;5071878;28;20453;-80
2022/06/05 10:38:26;;;;;;;2.87;2.67;;;;;;;;;;5079607;28;20549;-80
2022/06/05 10:40:57;;;;;;;3.27;2.47;;;;;;;;;;5100089;28;20473;-80
2022/06/05 10:43:26;;;;;;;6.17;3.47;;;;;;;;;;5069396;28;21082;-81
2022/06/05 10:45:55;;;;;;;4.50;4.10;;;;;;;;;;5069675;28;20874;-81
2022/06/05 10:48:25;;;;;;;5.63;4.73;;;;;;;;;;5072288;28;20504;-81
2022/06/05 10:50:56;;;;;;;8.03;5.43;;;;;;;;;;5085413;28;20450;-81
2022/06/05 10:53:28;;;;;;;5.60;5.00;;;;;;;;;;5083282;28;20882;-81
2022/06/05 10:56:02;;;;;;;8.17;6.40;;;;;;;;;;5084621;28;20870;-80
2022/06/05 10:58:33;;;;;;;6.67;5.80;;;;;;;;;;5066197;28;20532;-81
2022/06/05 11:01:05;;;;;;;7.10;6.27;;;;;;;;;;5052192;28;21020;-82
2022/06/05 11:03:38;;;;;;;6.57;5.63;;;;;;;;;;5050414;28;20576;-81
2022/06/05 11:06:24;;;;;;;6.53;5.93;;;;;;;;;;5072825;28;20893;-81
2022/06/05 11:08:56;;;;;;;6.13;5.63;;;;;;;;;;5045879;28;21124;-81
2022/06/05 11:14:12;;;;;;;6.90;6.30;;;;;;;;;;5054439;28;20482;-81
2022/06/05 11:16:43;;;;;;;6.87;6.17;;;;;;;;;;5055823;28;20442;-81
2022/06/05 11:19:13;;;;;;;6.50;5.90;;;;;;;;;;5072800;28;20529;-80
2022/06/05 11:21:42;;;;;;;6.20;5.33;;;;;;;;;;5064423;28;20522;-81
2022/06/05 11:24:16;;;;;;;6.40;5.53;;;;;;;;;;5072606;28;20461;-81
2022/06/05 11:26:45;;;;;;;9.77;6.50;;;;;;;;;;5057574;28;20470;-81
2022/06/05 11:29:15;;;;;;;7.33;5.93;;;;;;;;;;5060870;28;20450;-81
2022/06/05 11:31:47;;;;;;;5.67;5.17;;;;;;;;;;5083821;28;20490;-81
2022/06/05 11:34:21;;;;;;;6.00;5.40;;;;;;;;;;5077456;28;20443;-81
2022/06/05 11:36:51;;;;;;;6.30;5.70;;;;;;;;;;5064862;28;20900;-81
2022/06/05 11:39:23;;;;;;;8.50;6.20;;;;;;;;;;5051844;28;20926;-81
2022/06/05 11:41:52;;;;;;;6.87;6.17;;;;;;;;;;5073332;28;20445;-81
2022/06/05 11:44:34;;;;;;;8.07;6.40;;;;;;;;;;5075253;28;20549;-82
2022/06/05 11:47:03;;;;;;;12.27;10.83;;;;;;;;;;5057833;28;20861;-78
2022/06/05 11:49:36;;;;;;;9.47;8.37;;;;;;;;;;5070617;28;20461;-78
2022/06/05 11:52:09;;;;;;;8.90;7.10;;;;;;;;;;5070862;28;20487;-76
2022/06/05 11:54:42;;;;;;;7.20;6.47;;;;;;;;;;5071584;28;20458;-76
2022/06/05 11:57:13;;;;;;;11.00;6.73;;;;;;;;;;5071365;28;20487;-76
2022/06/05 11:59:42;;;;;;;7.07;6.37;;;;;;;;;;5072594;28;20469;-76
2022/06/05 12:02:24;;;;;;;7.80;5.10;;;;;;;;;;5056278;28;20934;-76
2022/06/05 12:04:56;;;;;;;6.37;5.77;;;;;;;;;;5068191;28;20477;-78
2022/06/05 12:07:25;;;;;;;4.37;3.97;;;;;;;;;;5066202;28;20461;-76
2022/06/05 12:09:55;;;;;;;5.87;4.80;;;;;;;;;;5079685;28;20830;-77
2022/06/05 12:12:24;;;;;;;5.80;4.40;;;;;;;;;;5066492;28;20479;-75
2022/06/05 12:14:53;;;;;;;6.77;4.30;;;;;;;;;;5062151;28;20514;-75
2022/06/05 12:17:23;;;;;;;5.27;3.30;;;;;;;;;;5072562;28;20517;-75
2022/06/05 12:19:56;;;;;;;3.40;3.10;;;;;;;;;;5068174;28;20450;-76
2022/06/05 12:22:26;;;;;;;4.83;3.80;;;;;;;;;;5071245;28;20430;-76
2022/06/05 12:24:56;;;;;;;6.63;4.33;;;;;;;;;;5063725;28;20535;-76
2022/06/05 12:27:22;;;;;;;4.60;3.30;;;;;;;;;;5067457;28;20467;-76
2022/06/05 12:29:53;;;;;;;5.20;3.57;;;;;;;;;;5066294;28;20532;-76
2022/06/05 12:32:30;;;;;;;7.40;3.37;;;;;;;;;;5071405;28;20418;-76
2022/06/05 12:35:00;;;;;;;5.20;4.20;;;;;;;;;;5085434;28;20534;-76
2022/06/05 12:37:29;;;;;;;4.77;4.27;;;;;;;;;;5073502;28;20439;-76
2022/06/05 12:39:56;;;;;;;6.13;3.43;;;;;;;;;;5062535;28;20946;-76
2022/06/05 12:42:27;;;;;;;5.57;4.10;;;;;;;;;;5070731;28;20530;-76
2022/06/05 12:44:55;;;;;;;7.83;4.20;;;;;;;;;;5065195;28;20442;-76
2022/06/05 12:47:32;;;;;;;5.70;4.30;;;;;;;;;;5069944;28;20480;-76
2022/06/05 12:50:05;;;;;;;3.50;3.13;;;;;;;;;;5071932;28;20452;-76
2022/06/05 12:52:35;;;;;;;5.03;4.20;;;;;;;;;;5071465;28;20426;-76
2022/06/05 12:55:05;;;;;;;4.80;4.30;;;;;;;;;;5062739;28;20431;-76
2022/06/05 12:57:33;;;;;;;4.50;4.10;;;;;;;;;;5051635;28;20411;-76
2022/06/05 13:00:04;;;;;;;6.30;4.37;;;;;;;;;;5068772;28;20533;-76
2022/06/05 13:02:34;;;;;;;7.20;4.60;;;;;;;;;;5067199;28;20431;-76
2022/06/05 13:05:05;;;;;;;4.77;3.90;;;;;;;;;;5080446;28;20464;-76
2022/06/05 13:07:38;;;;;;;4.50;3.93;;;;;;;;;;5068395;28;20494;-75
2022/06/05 13:10:14;;;;;;;4.20;3.80;;;;;;;;;;5068685;28;20875;-76
2022/06/05 13:12:44;;;;;;;4.20;3.67;;;;;;;;;;5067961;28;20437;-76
2022/06/05 13:15:19;;;;;;;6.60;3.50;;;;;;;;;;5084069;28;20533;-75
2022/06/05 13:17:49;;;;;;;5.30;3.00;;;;;;;;;;5070521;28;20454;-75
2022/06/05 13:20:21;;;;;;;7.30;4.30;;;;;;;;;;5066680;28;20976;-76
2022/06/05 13:22:49;;;;;;;6.27;3.20;;;;;;;;;;5066945;28;20446;-75
2022/06/05 13:25:18;;;;;;;4.27;3.57;;;;;;;;;;5064645;28;20533;-75
2022/06/05 13:28:02;;;;;;;4.10;3.47;;;;;;;;;;5065708;28;20470;-75
2022/06/05 13:30:29;;;;;;;3.43;3.10;;;;;;;;;;5066727;28;20485;-75
2022/06/05 13:33:01;;;;;;;5.07;3.77;;;;;;;;;;5053081;28;20446;-75
2022/06/05 13:35:34;;;;;;;5.10;3.10;;;;;;;;;;5069538;28;20557;-75
2022/06/05 13:38:07;;;;;;;3.70;3.27;;;;;;;;;;5055348;28;20531;-74
2022/06/05 13:40:36;;;;;;;6.37;3.57;;;;;;;;;;5070400;28;20443;-75
2022/06/05 13:43:03;;;;;;;4.63;3.13;;;;;;;;;;5058423;28;20457;-74
2022/06/05 13:45:32;;;;;;;4.10;2.90;;;;;;;;;;5072811;28;20562;-74
2022/06/05 13:48:01;;;;;;;3.50;3.20;;;;;;;;;;5053015;28;20502;-74
2022/06/05 13:50:34;;;;;;;3.80;3.13;;;;;;;;;;5084517;28;20469;-76
2022/06/05 13:53:09;;;;;;;4.40;3.50;;;;;;;;;;5090120;28;20440;-76
2022/06/05 13:55:38;;;;;;;4.53;3.27;;;;;;;;;;5058128;28;20765;-80
2022/06/05 13:58:12;;;;;;;4.20;2.90;;;;;;;;;;5053623;28;20434;-81
2022/06/05 14:00:48;;;;;;;3.07;2.77;;;;;;;;;;5054640;28;20658;-81
2022/06/05 14:03:17;;;;;;;7.57;3.33;;;;;;;;;;5060109;28;20458;-82
2022/06/05 14:05:48;;;;;;;5.60;3.00;;;;;;;;;;5053135;28;21016;-82
2022/06/05 14:08:23;;;;;;;4.90;2.90;;;;;;;;;;5064095;28;20543;-81
2022/06/05 14:10:55;;;;;;;3.20;2.83;;;;;;;;;;5072601;28;20531;-81
2022/06/05 14:13:22;;;;;;;3.03;2.73;;;;;;;;;;5059378;28;20456;-81
2022/06/05 14:15:49;;;;;;;4.33;2.97;;;;;;;;;;5072902;28;20959;-81
2022/06/05 14:18:22;;;;;;;3.00;2.70;;;;;;;;;;5056877;28;20442;-81
2022/06/05 14:20:50;;;;;;;3.20;2.83;;;;;;;;;;5054026;28;20485;-81
2022/06/05 14:23:21;;;;;;;3.07;2.83;;;;;;;;;;5085068;28;20508;-81
2022/06/05 14:25:51;;;;;;;5.73;3.00;;;;;;;;;;5086175;28;20912;-81
2022/06/05 14:28:19;;;;;;;2.73;2.50;;;;;;;;;;5073521;28;20516;-81
2022/06/05 14:30:52;;;;;;;8.70;2.70;;;;;;;;;;5089404;28;20438;-81
2022/06/05 14:33:20;;;;;;;6.30;3.10;;;;;;;;;;5048255;28;20469;-81
2022/06/05 14:35:49;;;;;;;3.40;3.10;;;;;;;;;;5069584;28;20437;-81
2022/06/05 14:38:18;;;;;;;5.07;2.70;;;;;;;;;;5059782;28;20445;-81
2022/06/05 14:40:52;;;;;;;3.33;3.00;;;;;;;;;;5073212;28;20897;-81
2022/06/05 14:43:21;;;;;;;5.40;3.37;;;;;;;;;;5064850;28;20544;-81
2022/06/05 14:45:50;;;;;;;5.83;3.23;;;;;;;;;;5072152;28;20510;-81
2022/06/05 14:48:19;;;;;;;3.53;2.70;;;;;;;;;;5071939;28;20485;-81
2022/06/05 14:50:48;;;;;;;4.60;3.20;;;;;;;;;;5072138;28;20481;-81
2022/06/05 14:53:22;;;;;;;4.00;3.60;;;;;;;;;;5072565;28;20472;-81
2022/06/05 14:58:38;;;;;;;3.10;2.80;;;;;;;;;;5057007;28;20489;-82
2022/06/05 15:01:13;;;;;;;6.57;3.87;;;;;;;;;;5065465;28;20449;-82
2022/06/05 15:03:45;;;;;;;6.37;3.50;;;;;;;;;;5071583;28;20537;-82
2022/06/05 15:06:12;;;;;;;4.97;3.60;;;;;;;;;;5071700;28;20492;-82